createdAt,value
2023-04-13T00:01:11.409Z,80.60
2023-04-13T00:03:40.410Z,80.68
2023-04-13T00:06:11.571Z,80.35
2023-04-13T00:08:45.138Z,81.24
2023-04-13T00:11:14.451Z,80.78
2023-04-13T00:13:43.129Z,80.52
2023-04-13T00:16:13.782Z,80.57
2023-04-13T00:18:42.324Z,80.89
2023-04-13T00:21:10.676Z,80.43
2023-04-13T00:23:39.543Z,81.07
2023-04-13T00:26:08.904Z,80.99
2023-04-13T00:28:37.396Z,81.11
2023-04-13T00:31:06.865Z,80.71
2023-04-13T00:33:36.691Z,81.36
2023-04-13T00:36:05.433Z,80.94
2023-04-13T00:38:33.996Z,81.23
2023-04-13T00:41:03.947Z,80.95
2023-04-13T00:43:32.330Z,81.43
2023-04-13T00:46:02.013Z,81.63
2023-04-13T00:48:30.812Z,81.01
2023-04-13T00:51:00.547Z,81.85
2023-04-13T00:53:29.635Z,81.91
2023-04-13T00:55:58.351Z,81.29
2023-04-13T00:58:27.614Z,81.66
2023-04-13T01:00:58.881Z,82.15
2023-04-13T01:03:27.420Z,82.15
2023-04-13T01:06:05.301Z,82.48
2023-04-13T01:08:39.701Z,82.26
2023-04-13T01:11:14.439Z,82.93
2023-04-13T01:13:48.512Z,83.16
2023-04-13T01:16:20.994Z,83.14
2023-04-13T01:18:55.103Z,83.20
2023-04-13T01:21:27.769Z,83.38
2023-04-13T01:24:11.344Z,83.44
2023-04-13T01:26:54.406Z,83.22
2023-04-13T01:29:25.149Z,83.01
2023-04-13T01:31:54.370Z,82.64
2023-04-13T01:34:24.348Z,82.42
2023-04-13T01:36:52.965Z,82.46
2023-04-13T01:39:21.715Z,82.32
2023-04-13T01:41:50.812Z,82.43
2023-04-13T01:44:19.533Z,81.95
2023-04-13T01:46:54.339Z,81.95
2023-04-13T01:49:24.143Z,81.88
2023-04-13T01:51:54.923Z,82.10
2023-04-13T01:54:27.321Z,81.68
2023-04-13T01:57:00.252Z,81.47
2023-04-13T01:59:28.881Z,81.51
2023-04-13T02:01:59.531Z,81.69
2023-04-13T02:04:28.285Z,81.49
2023-04-13T02:06:56.680Z,81.21
2023-04-13T02:09:25.206Z,81.11
2023-04-13T02:11:54.219Z,81.03
2023-04-13T02:14:22.548Z,80.92
2023-04-13T02:16:50.990Z,81.07
2023-04-13T02:19:21.828Z,80.97
2023-04-13T02:21:50.218Z,81.17
2023-04-13T02:24:18.856Z,81.13
2023-04-13T02:26:49.264Z,81.11
2023-04-13T02:29:17.568Z,80.91
2023-04-13T02:31:46.340Z,81.05
2023-04-13T02:34:14.775Z,80.84
2023-04-13T02:36:45.326Z,80.43
2023-04-13T02:39:13.820Z,80.60
2023-04-13T02:41:43.190Z,80.65
2023-04-13T02:44:12.588Z,80.56
2023-04-13T02:46:41.186Z,80.29
2023-04-13T02:49:10.130Z,80.37
2023-04-13T02:51:38.534Z,80.14
2023-04-13T02:54:15.728Z,79.94
2023-04-13T02:56:44.845Z,80.02
2023-04-13T02:59:13.218Z,80.01
2023-04-13T03:01:42.246Z,80.21
2023-04-13T03:04:12.018Z,80.26
2023-04-13T03:06:42.730Z,79.98
2023-04-13T03:09:12.032Z,79.84
2023-04-13T03:11:42.485Z,79.84
2023-04-13T03:14:13.264Z,79.52
2023-04-13T03:16:41.901Z,79.59
2023-04-13T03:19:11.968Z,79.67
2023-04-13T03:21:41.491Z,79.45
2023-04-13T03:24:11.740Z,79.27
2023-04-13T03:26:41.461Z,79.29
2023-04-13T03:29:09.869Z,79.33
2023-04-13T03:31:38.276Z,79.31
2023-04-13T03:34:06.676Z,79.10
2023-04-13T03:36:43.624Z,78.85
2023-04-13T03:39:12.899Z,78.82
2023-04-13T03:41:42.693Z,78.74
2023-04-13T03:44:11.583Z,78.85
2023-04-13T03:46:40.180Z,78.65
2023-04-13T03:49:13.006Z,78.73
2023-04-13T03:51:41.518Z,78.73
2023-04-13T03:54:10.781Z,78.69
2023-04-13T03:56:39.201Z,78.55
2023-04-13T03:59:11.932Z,78.44
2023-04-13T04:01:40.550Z,78.34
2023-04-13T04:04:09.112Z,78.54
2023-04-13T04:06:37.881Z,78.30
2023-04-13T04:09:06.784Z,78.44
2023-04-13T04:11:35.214Z,78.56
2023-04-13T04:14:03.932Z,78.80
2023-04-13T04:16:33.705Z,78.72
2023-04-13T04:19:02.173Z,78.60
2023-04-13T04:21:34.294Z,78.51
2023-04-13T04:24:02.786Z,78.26
2023-04-13T04:26:32.276Z,78.13
2023-04-13T04:29:02.237Z,78.29
2023-04-13T04:31:37.000Z,78.20
2023-04-13T04:34:07.198Z,78.32
2023-04-13T04:36:36.378Z,77.96
2023-04-13T04:39:07.758Z,78.25
2023-04-13T04:41:37.953Z,78.21
2023-04-13T04:44:08.845Z,77.85
2023-04-13T04:46:41.682Z,77.75
2023-04-13T04:49:12.347Z,78.01
2023-04-13T04:51:40.687Z,77.56
2023-04-13T04:54:09.087Z,77.80
2023-04-13T04:56:39.841Z,77.51
2023-04-13T04:59:08.295Z,77.54
2023-04-13T05:01:36.847Z,77.30
2023-04-13T05:04:05.600Z,77.06
2023-04-13T05:06:35.572Z,77.09
2023-04-13T05:09:05.975Z,76.96
2023-04-13T05:11:34.744Z,77.08
2023-04-13T05:14:03.125Z,76.99
2023-04-13T05:16:31.803Z,76.73
2023-04-13T05:19:00.396Z,76.77
2023-04-13T05:21:28.847Z,76.54
2023-04-13T05:23:58.591Z,76.69
2023-04-13T05:26:27.258Z,77.05
2023-04-13T05:28:55.688Z,76.89
2023-04-13T05:31:24.851Z,76.93
2023-04-13T05:33:53.257Z,76.89
2023-04-13T05:36:21.667Z,77.31
2023-04-13T05:38:56.942Z,77.34
2023-04-13T05:41:27.523Z,77.33
2023-04-13T05:43:56.146Z,77.26
2023-04-13T05:46:24.528Z,77.22
2023-04-13T05:48:52.935Z,77.38
2023-04-13T05:51:21.492Z,77.48
2023-04-13T05:53:49.868Z,77.12
2023-04-13T05:56:18.277Z,77.16
2023-04-13T05:58:48.461Z,77.03
2023-04-13T06:01:18.446Z,77.16
2023-04-13T06:03:47.169Z,76.44
2023-04-13T06:06:17.477Z,76.45
2023-04-13T06:08:45.947Z,76.62
2023-04-13T06:11:15.516Z,76.49
2023-04-13T06:13:43.848Z,76.39
2023-04-13T06:16:15.487Z,76.44
2023-04-13T06:18:43.942Z,76.23
2023-04-13T06:21:15.540Z,75.92
2023-04-13T06:23:43.944Z,75.82
2023-04-13T06:26:13.453Z,75.74
2023-04-13T06:28:42.888Z,75.89
2023-04-13T06:31:14.452Z,75.79
2023-04-13T06:33:44.522Z,75.60
2023-04-13T06:36:13.442Z,75.54
2023-04-13T06:38:42.052Z,75.18
2023-04-13T06:41:10.537Z,75.28
2023-04-13T06:43:39.016Z,74.75
2023-04-13T06:46:07.921Z,74.51
2023-04-13T06:48:36.468Z,74.47
2023-04-13T06:51:07.527Z,74.29
2023-04-13T06:53:35.892Z,74.23
2023-04-13T06:56:04.252Z,74.26
2023-04-13T06:58:32.724Z,74.29
2023-04-13T07:01:01.161Z,73.91
2023-04-13T07:03:29.744Z,74.06
2023-04-13T07:05:58.574Z,73.90
2023-04-13T07:08:28.413Z,73.95
2023-04-13T07:10:57.963Z,73.64
2023-04-13T07:13:27.083Z,73.67
2023-04-13T07:15:55.637Z,74.00
2023-04-13T07:18:34.071Z,73.84
2023-04-13T07:21:02.773Z,74.17
2023-04-13T07:23:34.030Z,74.06
2023-04-13T07:26:02.469Z,74.03
2023-04-13T07:28:30.943Z,74.11
2023-04-13T07:30:59.504Z,74.11
2023-04-13T07:33:27.969Z,73.79
2023-04-13T07:35:56.370Z,73.88
2023-04-13T07:38:24.882Z,73.54
2023-04-13T07:40:54.625Z,73.86
2023-04-13T07:43:25.373Z,73.43
2023-04-13T07:45:53.884Z,72.81
2023-04-13T07:48:22.338Z,72.93
2023-04-13T07:50:50.765Z,72.51
2023-04-13T07:53:19.214Z,72.24
2023-04-13T07:55:47.594Z,72.31
2023-04-13T07:58:17.533Z,71.75
2023-04-13T08:00:46.471Z,72.31
2023-04-13T08:03:14.959Z,72.26
2023-04-13T08:05:45.607Z,71.66
2023-04-13T08:08:16.494Z,71.36
2023-04-13T08:10:44.848Z,71.51
2023-04-13T08:13:13.216Z,71.53
2023-04-13T08:15:43.148Z,71.21
2023-04-13T08:18:11.774Z,71.13
2023-04-13T08:20:40.325Z,70.59
2023-04-13T08:23:09.643Z,69.82
2023-04-13T08:25:40.748Z,69.50
2023-04-13T08:28:09.636Z,69.97
2023-04-13T08:30:38.164Z,69.46
2023-04-13T08:33:08.057Z,68.83
2023-04-13T08:35:39.172Z,69.03
2023-04-13T08:38:09.109Z,68.32
2023-04-13T08:40:39.614Z,68.27
2023-04-13T08:43:08.314Z,67.90
2023-04-13T08:45:37.555Z,68.30
2023-04-13T08:48:10.961Z,68.06
2023-04-13T08:50:39.765Z,67.18
2023-04-13T08:53:08.617Z,67.14
2023-04-13T08:55:44.216Z,67.32
2023-04-13T08:58:15.506Z,66.86
2023-04-13T09:00:45.905Z,66.77
2023-04-13T09:03:21.369Z,66.25
2023-04-13T09:05:55.175Z,65.92
2023-04-13T09:08:24.295Z,65.89
2023-04-13T09:10:53.030Z,65.29
2023-04-13T09:13:21.930Z,65.40
2023-04-13T09:15:50.488Z,65.34
2023-04-13T09:18:20.301Z,64.54
2023-04-13T09:20:56.680Z,64.03
2023-04-13T09:23:25.462Z,64.21
2023-04-13T09:26:05.454Z,63.87
2023-04-13T09:28:33.886Z,64.59
2023-04-13T09:31:05.941Z,64.37
2023-04-13T09:33:47.004Z,63.72
2023-04-13T09:36:17.431Z,63.67
2023-04-13T09:38:46.962Z,63.27
2023-04-13T09:41:15.815Z,62.77
2023-04-13T09:43:44.213Z,62.77
2023-04-13T09:46:17.509Z,62.27
2023-04-13T09:48:47.491Z,62.27
2023-04-13T09:51:20.328Z,62.50
2023-04-13T09:53:50.166Z,62.82
2023-04-13T09:56:20.177Z,63.04
2023-04-13T09:58:49.124Z,63.11
2023-04-13T10:01:19.669Z,62.65
2023-04-13T10:03:49.573Z,62.16
2023-04-13T10:06:21.075Z,62.64
2023-04-13T10:08:49.779Z,62.05
2023-04-13T10:11:18.905Z,62.40
2023-04-13T10:13:53.109Z,62.41
2023-04-13T10:16:58.386Z,62.25
2023-04-13T10:19:31.948Z,62.87
2023-04-13T10:22:01.355Z,62.19
2023-04-13T10:24:30.059Z,61.78
2023-04-13T10:27:01.748Z,61.09
2023-04-13T10:29:30.775Z,60.47
2023-04-13T10:32:03.607Z,60.16
2023-04-13T10:34:35.816Z,60.02
2023-04-13T10:37:06.642Z,59.76
2023-04-13T10:39:37.761Z,60.16
2023-04-13T10:42:07.882Z,59.45
2023-04-13T10:44:43.611Z,59.63
2023-04-13T10:47:12.538Z,59.54
2023-04-13T10:49:43.026Z,59.42
2023-04-13T10:52:12.065Z,58.70
2023-04-13T10:54:42.265Z,59.03
2023-04-13T10:57:12.272Z,58.18
2023-04-13T10:59:56.289Z,58.13
2023-04-13T11:02:31.499Z,57.63
2023-04-13T11:05:02.252Z,57.43
2023-04-13T11:07:31.529Z,57.26
2023-04-13T11:12:34.887Z,56.69
2023-04-13T11:15:03.362Z,56.19
2023-04-13T11:17:31.812Z,55.78
2023-04-13T11:20:04.439Z,55.86
2023-04-13T11:22:37.096Z,55.02
2023-04-13T11:25:09.946Z,54.87
2023-04-13T11:27:44.872Z,54.91
2023-04-13T11:30:13.907Z,55.08
2023-04-13T11:32:50.337Z,54.33
2023-04-13T11:35:22.366Z,54.74
2023-04-13T11:37:53.999Z,54.17
2023-04-13T11:40:24.254Z,54.22
2023-04-13T11:42:54.412Z,54.47
2023-04-13T11:45:25.875Z,54.53
2023-04-13T11:47:55.230Z,54.54
2023-04-13T11:50:25.539Z,54.18
2023-04-13T11:53:04.477Z,54.52
2023-04-13T11:55:46.097Z,54.25
2023-04-13T11:58:22.845Z,54.46
2023-04-13T12:00:51.459Z,53.93
2023-04-13T12:06:02.418Z,54.04
2023-04-13T12:08:32.127Z,54.50
2023-04-13T12:13:47.137Z,53.92
2023-04-13T12:16:45.270Z,53.73
2023-04-13T12:19:16.623Z,54.50
2023-04-13T12:21:55.877Z,53.82
2023-04-13T12:24:33.672Z,53.61
2023-04-13T12:29:41.373Z,54.03
2023-04-13T12:32:14.567Z,54.05
2023-04-13T12:34:44.099Z,53.90
2023-04-13T12:37:13.890Z,53.96
2023-04-13T12:39:43.336Z,53.65
2023-04-13T12:42:12.149Z,53.53
2023-04-13T12:44:40.613Z,53.84
2023-04-13T12:47:09.078Z,53.98
2023-04-13T12:49:38.070Z,53.96
2023-04-13T12:52:07.028Z,53.89
2023-04-13T12:54:38.158Z,53.69
2023-04-13T12:57:07.729Z,53.75
2023-04-13T12:59:36.286Z,53.17
2023-04-13T13:02:04.829Z,53.25
2023-04-13T13:04:33.278Z,52.92
2023-04-13T13:07:01.910Z,53.24
2023-04-13T13:09:32.115Z,53.20
2023-04-13T13:12:02.598Z,53.49
2023-04-13T13:14:32.096Z,53.33
2023-04-13T13:17:00.856Z,53.39
2023-04-13T13:19:29.235Z,53.39
2023-04-13T13:21:57.674Z,52.76
2023-04-13T13:24:27.795Z,53.03
2023-04-13T13:29:33.195Z,53.31
2023-04-13T13:32:01.895Z,53.37
2023-04-13T13:34:30.594Z,53.21
2023-04-13T13:36:59.004Z,53.12
2023-04-13T13:39:27.440Z,53.30
2023-04-13T13:41:58.561Z,54.07
2023-04-13T13:44:28.432Z,53.75
2023-04-13T13:46:56.802Z,54.08
2023-04-13T13:49:25.452Z,54.35
2023-04-13T13:51:54.244Z,54.34
2023-04-13T13:54:22.845Z,54.36
2023-04-13T13:56:51.641Z,53.82
2023-04-13T13:59:21.442Z,53.77
2023-04-13T14:01:51.502Z,53.85
2023-04-13T14:04:22.003Z,54.73
2023-04-13T14:06:50.634Z,54.42
2023-04-13T14:09:21.222Z,54.75
2023-04-13T14:11:50.585Z,54.91
2023-04-13T14:14:22.365Z,55.21
2023-04-13T14:16:52.628Z,55.43
2023-04-13T14:19:23.864Z,55.20
2023-04-13T14:21:56.566Z,55.68
2023-04-13T14:24:26.433Z,56.54
2023-04-13T14:26:55.150Z,56.10
2023-04-13T14:29:23.607Z,56.63
2023-04-13T14:31:53.702Z,56.46
2023-04-13T14:34:22.122Z,56.06
2023-04-13T14:36:53.705Z,56.28
2023-04-13T14:39:25.925Z,56.38
2023-04-13T14:41:56.421Z,56.20
2023-04-13T14:44:25.507Z,56.25
2023-04-13T14:47:00.944Z,56.16
2023-04-13T14:49:29.379Z,56.54
2023-04-13T14:51:57.764Z,57.11
2023-04-13T14:54:26.450Z,57.29
2023-04-13T14:56:55.012Z,57.78
2023-04-13T14:59:25.094Z,58.19
2023-04-13T15:01:53.804Z,58.46
2023-04-13T15:04:23.706Z,58.80
2023-04-13T15:06:54.350Z,58.73
2023-04-13T15:09:23.084Z,59.34
2023-04-13T15:11:51.941Z,58.95
2023-04-13T15:14:21.097Z,59.03
2023-04-13T15:16:49.518Z,58.39
2023-04-13T15:19:17.947Z,59.31
2023-04-13T15:21:47.984Z,59.83
2023-04-13T15:24:16.427Z,60.11
2023-04-13T15:26:44.846Z,60.79
2023-04-13T15:29:13.440Z,61.75
2023-04-13T15:31:41.977Z,62.17
2023-04-13T15:34:10.528Z,62.78
2023-04-13T15:36:39.682Z,63.16
2023-04-13T15:39:09.548Z,63.74
2023-04-13T15:41:39.916Z,64.18
2023-04-13T15:44:08.262Z,64.27
2023-04-13T15:46:37.307Z,64.31
2023-04-13T15:49:05.855Z,64.71
2023-04-13T15:51:34.191Z,64.78
2023-04-13T15:54:02.846Z,64.79
2023-04-13T15:56:32.999Z,64.68
2023-04-13T15:59:01.638Z,64.48
2023-04-13T16:01:44.597Z,64.91
2023-04-13T16:04:13.338Z,65.08
2023-04-13T16:06:42.116Z,65.35
2023-04-13T16:09:10.905Z,65.51
2023-04-13T16:11:42.193Z,65.87
2023-04-13T16:14:10.713Z,66.00
2023-04-13T16:16:46.593Z,65.99
2023-04-13T16:19:18.729Z,65.94
2023-04-13T16:21:50.890Z,66.18
2023-04-13T16:24:21.876Z,66.23
2023-04-13T16:26:51.863Z,66.49
2023-04-13T16:29:22.762Z,66.57
2023-04-13T16:31:51.194Z,66.91
2023-04-13T16:34:26.208Z,67.07
2023-04-13T16:36:55.198Z,67.15
2023-04-13T16:39:23.574Z,67.02
2023-04-13T16:41:53.380Z,67.17
2023-04-13T16:44:23.064Z,67.34
2023-04-13T16:46:51.463Z,67.27
2023-04-13T16:49:22.333Z,67.42
2023-04-13T16:51:52.098Z,67.65
2023-04-13T16:54:21.173Z,67.67
2023-04-13T16:56:49.632Z,67.80
2023-04-13T16:59:19.676Z,67.66
2023-04-13T17:01:48.076Z,67.57
2023-04-13T17:04:16.593Z,67.76
2023-04-13T17:06:47.365Z,67.87
2023-04-13T17:09:15.843Z,67.81
2023-04-13T17:11:44.220Z,67.86
2023-04-13T17:14:12.710Z,68.10
2023-04-13T17:16:42.478Z,67.78
2023-04-13T17:19:10.900Z,67.61
2023-04-13T17:21:41.447Z,67.79
2023-04-13T17:24:10.108Z,67.80
2023-04-13T17:26:38.525Z,67.70
2023-04-13T17:29:07.005Z,67.69
2023-04-13T17:31:35.751Z,67.80
2023-04-13T17:34:05.594Z,67.91
2023-04-13T17:36:34.017Z,68.15
2023-04-13T17:39:02.561Z,68.11
2023-04-13T17:41:31.260Z,68.29
2023-04-13T17:43:59.762Z,68.26
2023-04-13T17:46:29.788Z,68.63
2023-04-13T17:48:58.502Z,68.60
2023-04-13T17:51:29.019Z,68.52
2023-04-13T17:53:57.493Z,68.65
2023-04-13T17:56:26.123Z,68.69
2023-04-13T17:58:54.555Z,68.58
2023-04-13T18:01:25.829Z,68.83
2023-04-13T18:03:54.489Z,68.83
2023-04-13T18:06:24.272Z,69.10
2023-04-13T18:08:54.228Z,69.04
2023-04-13T18:11:23.526Z,69.04
2023-04-13T18:13:51.963Z,69.16
2023-04-13T18:16:20.482Z,69.26
2023-04-13T18:18:49.073Z,69.34
2023-04-13T18:21:19.296Z,69.23
2023-04-13T18:23:47.846Z,69.10
2023-04-13T18:26:17.695Z,69.51
2023-04-13T18:28:46.070Z,69.52
2023-04-13T18:31:14.613Z,69.63
2023-04-13T18:33:44.100Z,69.43
2023-04-13T18:36:15.356Z,69.41
2023-04-13T18:38:43.917Z,69.41
2023-04-13T18:41:12.694Z,69.36
2023-04-13T18:43:42.464Z,69.56
2023-04-13T18:46:11.374Z,69.94
2023-04-13T18:48:39.905Z,69.94
2023-04-13T18:51:09.918Z,70.01
2023-04-13T18:53:38.739Z,69.68
2023-04-13T18:56:07.298Z,69.94
2023-04-13T18:58:35.754Z,69.93
2023-04-13T19:01:05.608Z,69.79
2023-04-13T19:03:34.182Z,69.75
2023-04-13T19:06:02.607Z,69.65
2023-04-13T19:08:31.000Z,69.85
2023-04-13T19:10:59.648Z,70.16
2023-04-13T19:13:28.119Z,70.16
2023-04-13T19:15:57.740Z,69.91
2023-04-13T19:18:27.617Z,69.99
2023-04-13T19:20:56.523Z,69.86
2023-04-13T19:23:26.523Z,70.07
2023-04-13T19:25:54.956Z,70.16
2023-04-13T19:28:26.330Z,69.90
2023-04-13T19:30:55.150Z,70.45
2023-04-13T19:33:24.679Z,70.36
2023-04-13T19:35:54.380Z,70.75
2023-04-13T19:38:23.675Z,71.13
2023-04-13T19:40:52.026Z,71.31
2023-04-13T19:43:23.625Z,71.35
2023-04-13T19:45:52.235Z,71.11
2023-04-13T19:48:20.753Z,71.00
2023-04-13T19:50:49.266Z,71.65
2023-04-13T19:53:19.074Z,71.84
2023-04-13T19:55:47.523Z,71.71
2023-04-13T19:58:16.898Z,71.58
2023-04-13T20:00:54.090Z,71.59
2023-04-13T20:03:23.764Z,71.93
2023-04-13T20:05:52.412Z,71.68
2023-04-13T20:08:22.794Z,72.11
2023-04-13T20:10:51.497Z,72.26
2023-04-13T20:13:20.001Z,72.02
2023-04-13T20:15:48.514Z,71.91
2023-04-13T20:18:17.437Z,72.17
2023-04-13T20:20:46.652Z,72.07
2023-04-13T20:23:15.283Z,72.36
2023-04-13T20:25:45.080Z,72.10
2023-04-13T20:28:13.544Z,71.98
2023-04-13T20:30:41.956Z,72.33
2023-04-13T20:33:10.583Z,72.57
2023-04-13T20:35:39.083Z,72.58
2023-04-13T20:38:07.459Z,72.45
2023-04-13T20:40:36.378Z,72.44
2023-04-13T20:43:06.335Z,72.36
2023-04-13T20:45:36.278Z,72.39
2023-04-13T20:50:36.403Z,72.91
2023-04-13T20:53:05.420Z,72.75
2023-04-13T20:55:33.814Z,72.52
2023-04-13T20:58:02.337Z,72.33
2023-04-13T21:00:34.833Z,72.48
2023-04-13T21:03:04.213Z,72.40
2023-04-13T21:05:33.164Z,72.42
2023-04-13T21:08:01.647Z,72.90
2023-04-13T21:10:30.091Z,72.97
2023-04-13T21:12:58.484Z,72.73
2023-04-13T21:15:26.901Z,73.13
2023-04-13T21:17:56.682Z,73.37
2023-04-13T21:20:26.186Z,73.53
2023-04-13T21:22:54.602Z,73.03
2023-04-13T21:25:23.043Z,73.17
2023-04-13T21:27:51.495Z,73.21
2023-04-13T21:30:19.987Z,73.39
2023-04-13T21:32:49.127Z,72.92
2023-04-13T21:35:19.514Z,72.85
2023-04-13T21:37:47.971Z,72.85
2023-04-13T21:40:18.151Z,72.70
2023-04-13T21:42:46.543Z,72.87
2023-04-13T21:45:15.010Z,72.80
2023-04-13T21:47:43.461Z,73.20
2023-04-13T21:50:12.173Z,73.12
2023-04-13T21:52:47.672Z,73.22
2023-04-13T21:55:18.930Z,73.40
2023-04-13T21:57:47.889Z,73.22
2023-04-13T22:00:17.905Z,73.82
2023-04-13T22:02:46.445Z,73.70
2023-04-13T22:05:26.435Z,74.04
2023-04-13T22:07:56.513Z,73.98
2023-04-13T22:10:26.327Z,74.14
2023-04-13T22:12:54.682Z,73.87
2023-04-13T22:15:23.072Z,73.85
2023-04-13T22:17:58.276Z,74.24
2023-04-13T22:20:28.141Z,74.10
2023-04-13T22:23:01.139Z,74.56
2023-04-13T22:25:29.557Z,74.63
2023-04-13T22:27:57.925Z,74.58
2023-04-13T22:30:27.378Z,75.03
2023-04-13T22:32:55.771Z,75.17
2023-04-13T22:35:24.754Z,74.73
2023-04-13T22:37:53.474Z,75.24
2023-04-13T22:40:23.308Z,75.30
2023-04-13T22:42:53.971Z,75.66
2023-04-13T22:45:22.471Z,75.74
2023-04-13T22:47:53.944Z,75.92
2023-04-13T22:50:22.396Z,75.90
2023-04-13T22:52:50.750Z,75.89
2023-04-13T22:55:20.670Z,75.50
2023-04-13T22:57:50.736Z,76.01
2023-04-13T23:00:20.783Z,75.82
2023-04-13T23:02:50.530Z,75.94
2023-04-13T23:05:19.352Z,75.78
2023-04-13T23:07:47.707Z,75.83
2023-04-13T23:10:17.187Z,75.65
2023-04-13T23:12:45.793Z,76.08
2023-04-13T23:15:15.852Z,76.12
2023-04-13T23:17:44.254Z,75.82
2023-04-13T23:20:12.982Z,76.07
2023-04-13T23:22:45.537Z,76.80
2023-04-13T23:25:14.037Z,76.74
2023-04-13T23:27:42.455Z,76.68
2023-04-13T23:30:11.974Z,76.65
2023-04-13T23:32:45.695Z,76.64
2023-04-13T23:35:14.111Z,76.59
2023-04-13T23:37:46.555Z,77.03
2023-04-13T23:40:15.178Z,77.04
2023-04-13T23:42:53.566Z,76.47
2023-04-13T23:45:22.437Z,76.57
2023-04-13T23:47:52.430Z,77.03
2023-04-13T23:50:21.528Z,76.55
2023-04-13T23:52:49.886Z,76.63
2023-04-13T23:55:18.271Z,76.68
2023-04-13T23:57:46.700Z,76.69
